createdAt,value
2018-07-31T00:01:51.903Z,101852.96
2018-07-31T00:04:20.254Z,101852.19
2018-07-31T00:06:48.625Z,101850.80
2018-07-31T00:09:16.977Z,101852.05
2018-07-31T00:11:45.297Z,101851.90
2018-07-31T00:14:13.621Z,101852.41
2018-07-31T00:16:41.945Z,101856.55
2018-07-31T00:19:10.264Z,101853.45
2018-07-31T00:21:38.607Z,101851.25
2018-07-31T00:24:06.939Z,101853.17
2018-07-31T00:26:35.272Z,101851.91
2018-07-31T00:29:03.028Z,101854.93
2018-07-31T00:31:31.929Z,101856.80
2018-07-31T00:34:00.260Z,101858.55
2018-07-31T00:36:28.593Z,101858.43
2018-07-31T00:38:56.933Z,101860.88
2018-07-31T00:41:24.705Z,101857.05
2018-07-31T00:43:53.052Z,101855.25
2018-07-31T00:46:21.389Z,101858.84
2018-07-31T00:48:50.311Z,101859.80
2018-07-31T00:51:18.662Z,101858.27
2018-07-31T00:53:46.430Z,101860.30
2018-07-31T00:56:15.345Z,101857.55
2018-07-31T00:58:43.699Z,101854.46
2018-07-31T01:01:12.015Z,101850.91
2018-07-31T01:03:40.372Z,101852.11
2018-07-31T01:06:08.699Z,101852.17
2018-07-31T01:08:36.497Z,101852.89
2018-07-31T01:11:05.471Z,101847.98
2018-07-31T01:13:33.750Z,101849.26
2018-07-31T01:16:02.109Z,101847.93
2018-07-31T01:18:30.072Z,101848.97
2018-07-31T01:20:58.768Z,101842.92
2018-07-31T01:23:26.521Z,101840.55
2018-07-31T01:25:54.852Z,101842.44
2018-07-31T01:28:23.771Z,101841.32
2018-07-31T01:30:52.109Z,101837.14
2018-07-31T01:33:20.451Z,101849.35
2018-07-31T01:35:48.789Z,101844.63
2018-07-31T01:38:18.716Z,101844.27
2018-07-31T01:40:45.466Z,101835.24
2018-07-31T01:43:13.786Z,101837.30
2018-07-31T01:45:42.166Z,101836.67
2018-07-31T01:48:10.476Z,101831.69
2018-07-31T01:50:38.809Z,101839.00
2018-07-31T01:53:07.141Z,101841.80
2018-07-31T01:55:34.885Z,101831.62
2018-07-31T01:58:03.800Z,101830.06
2018-07-31T02:00:32.125Z,101828.55
2018-07-31T02:03:00.143Z,101828.84
2018-07-31T02:05:28.781Z,101827.28
2018-07-31T02:07:57.116Z,101829.93
2018-07-31T02:10:25.485Z,101829.20
2018-07-31T02:12:53.805Z,101827.99
2018-07-31T02:15:22.146Z,101823.59
2018-07-31T02:17:50.470Z,101824.81
2018-07-31T02:20:18.799Z,101822.87
2018-07-31T02:22:47.114Z,101826.66
2018-07-31T02:25:15.450Z,101829.92
2018-07-31T02:27:43.763Z,101827.16
2018-07-31T02:30:12.090Z,101828.92
2018-07-31T02:35:08.735Z,101831.64
2018-07-31T02:37:37.060Z,101833.93
2018-07-31T02:40:05.386Z,101828.84
2018-07-31T02:42:33.715Z,101828.20
2018-07-31T02:45:02.035Z,101826.75
2018-07-31T02:47:30.366Z,101826.84
2018-07-31T02:49:58.700Z,101824.50
2018-07-31T02:52:27.025Z,101818.85
2018-07-31T02:54:55.368Z,101818.48
2018-07-31T02:57:23.680Z,101815.86
2018-07-31T02:59:51.428Z,101820.44
2018-07-31T03:02:19.733Z,101821.59
2018-07-31T03:04:48.058Z,101822.70
2018-07-31T03:07:16.965Z,101829.06
2018-07-31T03:09:44.718Z,101830.80
2018-07-31T03:12:13.647Z,101830.36
2018-07-31T03:14:41.998Z,101825.00
2018-07-31T03:17:09.950Z,101829.75
2018-07-31T03:19:38.670Z,101828.03
2018-07-31T03:22:06.987Z,101828.70
2018-07-31T03:24:35.302Z,101830.94
2018-07-31T03:27:03.633Z,101835.38
2018-07-31T03:29:32.004Z,101837.39
2018-07-31T03:32:00.311Z,101838.24
2018-07-31T03:34:30.744Z,101838.22
2018-07-31T03:36:56.365Z,101838.66
2018-07-31T03:39:25.864Z,101836.91
2018-07-31T03:41:53.603Z,101840.11
2018-07-31T03:44:21.351Z,101842.66
2018-07-31T03:46:49.669Z,101843.23
2018-07-31T03:49:18.565Z,101844.00
2018-07-31T03:51:46.874Z,101844.41
2018-07-31T03:54:17.050Z,101841.08
2018-07-31T03:56:43.634Z,101844.36
2018-07-31T03:59:11.368Z,101844.29
2018-07-31T04:01:40.350Z,101842.45
2018-07-31T04:04:08.671Z,101839.98
2018-07-31T04:06:36.991Z,101845.52
2018-07-31T04:09:05.321Z,101841.89
2018-07-31T04:11:33.066Z,101835.91
2018-07-31T04:14:02.017Z,101838.84
2018-07-31T04:16:29.766Z,101835.09
2018-07-31T04:18:58.957Z,101834.44
2018-07-31T04:21:27.078Z,101834.68
2018-07-31T04:24:05.942Z,101833.44
2018-07-31T04:26:33.754Z,101834.78
2018-07-31T04:29:02.636Z,101832.63
2018-07-31T04:31:30.491Z,101830.25
2018-07-31T04:34:00.032Z,101832.20
2018-07-31T04:36:27.046Z,101828.67
2018-07-31T04:38:55.369Z,101824.70
2018-07-31T04:41:23.919Z,101819.38
2018-07-31T04:43:52.017Z,101817.69
2018-07-31T04:46:20.913Z,101815.80
2018-07-31T04:48:49.230Z,101824.17
2018-07-31T04:51:17.549Z,101824.98
2018-07-31T04:53:45.297Z,101819.04
2018-07-31T04:56:14.200Z,101822.75
2018-07-31T04:58:43.588Z,101825.34
2018-07-31T05:01:10.935Z,101826.85
2018-07-31T05:03:39.305Z,101820.74
2018-07-31T05:06:08.348Z,101825.16
2018-07-31T05:08:36.185Z,101826.94
2018-07-31T05:11:04.317Z,101827.33
2018-07-31T05:13:32.169Z,101830.70
2018-07-31T05:16:01.841Z,101827.12
2018-07-31T05:18:31.551Z,101828.03
2018-07-31T05:20:58.484Z,101826.36
2018-07-31T05:23:27.013Z,101827.53
2018-07-31T05:25:55.372Z,101832.38
2018-07-31T05:28:23.124Z,101838.28
2018-07-31T05:30:52.047Z,101835.92
2018-07-31T05:33:20.374Z,101836.81
2018-07-31T05:35:48.709Z,101836.48
2018-07-31T05:38:17.045Z,101837.48
2018-07-31T05:40:45.383Z,101835.85
2018-07-31T05:43:13.701Z,101836.91
2018-07-31T05:45:42.045Z,101834.61
2018-07-31T05:48:10.365Z,101839.28
2018-07-31T05:50:38.692Z,101841.03
2018-07-31T05:53:06.597Z,101841.38
2018-07-31T05:55:35.377Z,101842.91
2018-07-31T05:58:03.706Z,101843.50
2018-07-31T06:00:31.462Z,101840.89
2018-07-31T06:03:00.379Z,101841.16
2018-07-31T06:05:28.125Z,101845.31
2018-07-31T06:07:57.470Z,101846.08
2018-07-31T06:10:26.389Z,101844.34
2018-07-31T06:12:54.125Z,101844.42
2018-07-31T06:15:22.480Z,101848.72
2018-07-31T06:17:50.822Z,101848.77
2018-07-31T06:20:19.721Z,101849.67
2018-07-31T06:22:47.482Z,101847.75
2018-07-31T06:31:17.992Z,101850.61
2018-07-31T06:33:44.930Z,101849.59
2018-07-31T06:36:13.530Z,101848.58
2018-07-31T06:41:43.806Z,101849.28
2018-07-31T06:44:12.127Z,101859.34
2018-07-31T06:46:39.871Z,101853.54
2018-07-31T06:49:08.814Z,101857.40
2018-07-31T06:51:36.525Z,101857.33
2018-07-31T06:54:05.442Z,101855.09
2018-07-31T06:56:33.222Z,101858.18
2018-07-31T06:59:02.113Z,101857.59
2018-07-31T07:01:30.433Z,101858.55
2018-07-31T07:03:58.769Z,101859.84
2018-07-31T07:06:27.081Z,101861.59
2018-07-31T07:08:55.084Z,101865.16
2018-07-31T07:11:23.153Z,101864.94
2018-07-31T07:13:52.082Z,101865.28
2018-07-31T07:16:19.802Z,101863.74
2018-07-31T07:18:48.768Z,101861.00
2018-07-31T07:21:17.098Z,101859.93
2018-07-31T07:23:45.446Z,101858.49
2018-07-31T07:26:13.204Z,101861.70
2018-07-31T07:28:42.136Z,101861.56
2018-07-31T07:31:10.464Z,101858.42
2018-07-31T07:33:38.261Z,101856.98
2018-07-31T07:36:06.781Z,101860.02
2018-07-31T07:38:35.004Z,101858.89
2018-07-31T07:41:03.758Z,101859.59
2018-07-31T07:43:32.077Z,101861.44
2018-07-31T07:46:00.406Z,101853.48
2018-07-31T07:48:28.179Z,101855.22
2018-07-31T07:50:57.049Z,101856.30
2018-07-31T07:53:24.808Z,101857.37
2018-07-31T07:55:53.696Z,101858.05
2018-07-31T07:58:22.032Z,101864.47
2018-07-31T08:00:50.347Z,101863.59
2018-07-31T08:03:18.680Z,101866.62
2018-07-31T08:05:47.030Z,101866.31
2018-07-31T08:08:15.452Z,101861.63
2018-07-31T08:10:46.254Z,101861.95
2018-07-31T08:13:14.026Z,101864.73
2018-07-31T08:15:42.938Z,101869.09
2018-07-31T08:18:11.258Z,101867.45
2018-07-31T08:20:39.030Z,101868.43
2018-07-31T08:23:07.949Z,101871.63
2018-07-31T08:25:35.704Z,101868.86
2018-07-31T08:28:04.006Z,101870.77
2018-07-31T08:30:32.954Z,101869.70
2018-07-31T08:33:00.701Z,101870.38
2018-07-31T08:35:31.465Z,101872.44
2018-07-31T08:38:04.935Z,101871.75
2018-07-31T08:40:33.612Z,101871.66
2018-07-31T08:43:01.349Z,101864.14
2018-07-31T08:45:30.276Z,101864.81
2018-07-31T08:47:58.066Z,101865.38
2018-07-31T08:50:26.939Z,101865.16
2018-07-31T08:52:55.257Z,101865.55
2018-07-31T08:55:23.114Z,101861.31
2018-07-31T08:57:51.979Z,101865.40
2018-07-31T09:00:20.256Z,101862.88
2018-07-31T09:02:48.602Z,101863.28
2018-07-31T09:05:16.909Z,101863.55
2018-07-31T09:07:45.251Z,101868.21
2018-07-31T09:10:13.567Z,101868.79
2018-07-31T09:12:41.885Z,101871.65
2018-07-31T09:15:09.651Z,101872.73
2018-07-31T09:17:38.609Z,101875.27
2018-07-31T09:20:06.468Z,101871.69
2018-07-31T09:22:35.284Z,101877.50
2018-07-31T09:25:03.036Z,101876.67
2018-07-31T09:27:31.392Z,101872.66
2018-07-31T09:30:00.305Z,101875.68
2018-07-31T09:32:28.623Z,101870.53
2018-07-31T09:34:56.489Z,101870.04
2018-07-31T09:37:25.384Z,101870.45
2018-07-31T09:39:53.782Z,101869.23
2018-07-31T09:42:22.157Z,101865.53
2018-07-31T09:44:50.623Z,101866.26
2018-07-31T09:47:18.996Z,101866.59
2018-07-31T09:49:47.339Z,101866.84
2018-07-31T09:52:16.911Z,101862.67
2018-07-31T09:54:45.296Z,101863.33
2018-07-31T09:57:13.688Z,101862.58
2018-07-31T09:59:41.942Z,101859.95
2018-07-31T10:02:10.274Z,101858.00
2018-07-31T10:04:38.147Z,101857.42
2018-07-31T10:07:16.735Z,101847.36
2018-07-31T10:09:41.950Z,101858.88
2018-07-31T10:12:10.464Z,101852.89
2018-07-31T10:14:38.803Z,101851.57
2018-07-31T10:17:07.224Z,101854.52
2018-07-31T10:19:34.921Z,101851.47
2018-07-31T10:22:03.844Z,101851.09
2018-07-31T10:24:32.327Z,101851.27
2018-07-31T10:27:00.014Z,101844.95
2018-07-31T10:29:28.935Z,101850.77
2018-07-31T10:31:56.678Z,101849.50
2018-07-31T10:34:25.603Z,101850.16
2018-07-31T10:36:54.019Z,101851.63
2018-07-31T10:39:22.357Z,101850.20
2018-07-31T10:41:50.837Z,101847.56
2018-07-31T10:44:19.172Z,101844.53
2018-07-31T10:46:46.937Z,101842.13
2018-07-31T10:49:15.953Z,101840.66
2018-07-31T10:51:43.753Z,101842.47
2018-07-31T10:54:12.660Z,101841.22
2018-07-31T10:56:41.108Z,101842.34
2018-07-31T10:59:09.728Z,101842.06
2018-07-31T11:01:37.767Z,101842.66
2018-07-31T11:04:05.612Z,101841.70
2018-07-31T11:06:34.551Z,101843.34
2018-07-31T11:09:02.951Z,101842.83
2018-07-31T11:11:31.351Z,101842.28
2018-07-31T11:13:59.111Z,101839.59
2018-07-31T11:16:28.108Z,101841.20
2018-07-31T11:18:56.427Z,101840.44
2018-07-31T11:21:24.844Z,101842.11
2018-07-31T11:23:53.171Z,101843.73
2018-07-31T11:26:21.550Z,101843.52
2018-07-31T11:28:49.913Z,101843.06
2018-07-31T11:31:18.242Z,101845.95
2018-07-31T11:33:46.673Z,101844.26
2018-07-31T11:36:15.011Z,101845.59
2018-07-31T11:38:43.404Z,101845.53
2018-07-31T11:41:11.214Z,101848.72
2018-07-31T11:43:40.196Z,101851.56
2018-07-31T11:46:08.636Z,101847.36
2018-07-31T11:48:36.959Z,101843.09
2018-07-31T11:51:05.282Z,101841.80
2018-07-31T11:53:33.057Z,101835.88
2018-07-31T11:56:01.964Z,101828.84
2018-07-31T11:58:30.317Z,101825.95
2018-07-31T12:00:58.659Z,101819.53
2018-07-31T12:03:27.061Z,101828.02
2018-07-31T12:05:55.402Z,101828.14
2018-07-31T12:08:23.740Z,101830.70
2018-07-31T12:10:52.077Z,101821.82
2018-07-31T12:13:21.561Z,101827.36
2018-07-31T12:15:49.923Z,101827.44
2018-07-31T12:18:18.315Z,101825.38
2018-07-31T12:20:46.678Z,101825.12
2018-07-31T12:23:14.968Z,101824.33
2018-07-31T12:25:42.720Z,101822.45
2018-07-31T12:28:11.684Z,101821.29
2018-07-31T12:30:40.028Z,101819.18
2018-07-31T12:33:08.509Z,101813.40
2018-07-31T12:35:36.783Z,101807.59
2018-07-31T12:38:05.202Z,101805.84
2018-07-31T12:40:37.857Z,101804.09
2018-07-31T12:43:01.283Z,101805.53
2018-07-31T12:45:30.209Z,101803.70
2018-07-31T12:47:58.537Z,101800.91
2018-07-31T12:50:26.404Z,101800.55
2018-07-31T12:52:54.643Z,101801.31
2018-07-31T12:55:32.898Z,101799.97
2018-07-31T12:58:00.737Z,101793.98
2018-07-31T13:00:29.670Z,101793.31
2018-07-31T13:02:58.011Z,101791.11
2018-07-31T13:05:26.566Z,101784.45
2018-07-31T13:07:54.128Z,101783.77
2018-07-31T13:10:22.465Z,101788.39
2018-07-31T13:12:51.413Z,101787.36
2018-07-31T13:15:19.401Z,101790.84
2018-07-31T13:17:48.161Z,101792.81
2018-07-31T13:20:16.525Z,101791.61
2018-07-31T13:22:44.851Z,101791.28
2018-07-31T13:25:13.126Z,101791.37
2018-07-31T13:27:41.584Z,101794.38
2018-07-31T13:30:10.314Z,101787.02
2018-07-31T13:32:38.415Z,101785.47
2018-07-31T13:35:06.760Z,101779.64
2018-07-31T13:37:35.115Z,101779.92
2018-07-31T13:40:02.864Z,101780.03
2018-07-31T13:42:31.219Z,101784.38
2018-07-31T13:45:00.152Z,101784.34
2018-07-31T13:47:28.536Z,101784.19
2018-07-31T13:49:56.880Z,101784.35
2018-07-31T13:52:25.221Z,101789.45
2018-07-31T13:54:53.901Z,101789.72
2018-07-31T13:57:29.581Z,101790.06
2018-07-31T13:59:50.721Z,101781.94
2018-07-31T14:02:19.052Z,101784.31
2018-07-31T14:04:50.599Z,101782.13
2018-07-31T14:07:18.995Z,101780.42
2018-07-31T14:09:47.321Z,101774.40
2018-07-31T14:12:15.672Z,101770.92
2018-07-31T14:14:44.030Z,101767.59
2018-07-31T14:17:11.788Z,101762.90
2018-07-31T14:19:40.828Z,101752.56
2018-07-31T14:22:09.162Z,101753.34
2018-07-31T14:24:38.346Z,101756.91
2018-07-31T14:27:05.852Z,101752.59
2018-07-31T14:32:30.740Z,101755.63
2018-07-31T14:34:59.855Z,101753.34
2018-07-31T14:37:29.010Z,101754.03
2018-07-31T14:39:57.367Z,101751.33
2018-07-31T14:42:25.705Z,101756.17
2018-07-31T14:44:53.831Z,101754.17
2018-07-31T14:50:21.240Z,101745.97
2018-07-31T14:52:49.584Z,101751.63
2018-07-31T14:55:17.934Z,101752.66
2018-07-31T14:57:45.879Z,101743.86
2018-07-31T15:00:14.765Z,101745.91
2018-07-31T15:02:43.134Z,101747.31
2018-07-31T15:05:11.958Z,101743.16
2018-07-31T15:07:51.732Z,101737.38
2018-07-31T15:10:23.789Z,101727.03
2018-07-31T15:12:51.525Z,101734.27
2018-07-31T15:15:20.469Z,101728.31
2018-07-31T15:17:49.051Z,101727.48
2018-07-31T15:20:17.225Z,101724.08
2018-07-31T15:22:44.946Z,101729.38
2018-07-31T15:25:14.809Z,101725.14
2018-07-31T15:27:42.229Z,101728.06
2018-07-31T15:30:11.072Z,101727.02
2018-07-31T15:32:40.090Z,101723.09
2018-07-31T15:35:08.509Z,101723.39
2018-07-31T15:37:36.895Z,101725.56
2018-07-31T15:40:05.241Z,101723.30
2018-07-31T15:42:33.607Z,101730.95
2018-07-31T15:45:02.138Z,101729.73
2018-07-31T15:47:31.732Z,101733.78
2018-07-31T15:49:59.851Z,101728.14
2018-07-31T15:52:28.349Z,101731.84
2018-07-31T15:54:56.642Z,101724.77
2018-07-31T15:57:25.072Z,101729.14
2018-07-31T15:59:53.389Z,101728.55
2018-07-31T16:02:21.741Z,101728.05
2018-07-31T16:05:09.401Z,101729.27
2018-07-31T16:07:23.681Z,101722.90
2018-07-31T16:09:52.044Z,101725.22
2018-07-31T16:12:20.396Z,101725.29
2018-07-31T16:14:48.826Z,101718.35
2018-07-31T16:17:17.329Z,101718.98
2018-07-31T16:19:45.576Z,101714.77
2018-07-31T16:22:13.930Z,101714.48
2018-07-31T16:24:42.272Z,101718.77
2018-07-31T16:27:10.632Z,101717.87
2018-07-31T16:29:39.204Z,101715.11
2018-07-31T16:32:07.385Z,101713.12
2018-07-31T16:34:35.294Z,101712.08
2018-07-31T16:37:04.245Z,101712.10
2018-07-31T16:39:32.006Z,101714.83
2018-07-31T16:42:00.949Z,101719.75
2018-07-31T16:44:29.297Z,101710.46
2018-07-31T16:46:57.712Z,101706.13
2018-07-31T16:49:26.053Z,101709.27
2018-07-31T16:51:54.381Z,101708.84
2018-07-31T16:54:22.724Z,101714.67
2018-07-31T16:56:51.894Z,101709.83
2018-07-31T16:59:19.421Z,101715.20
2018-07-31T17:01:47.763Z,101719.14
2018-07-31T17:04:16.249Z,101725.89
2018-07-31T17:06:44.574Z,101723.81
2018-07-31T17:09:12.468Z,101718.81
2018-07-31T17:11:41.307Z,101720.89
2018-07-31T17:14:09.650Z,101720.80
2018-07-31T17:16:37.550Z,101722.56
2018-07-31T17:19:06.338Z,101725.50
2018-07-31T17:21:34.743Z,101723.12
2018-07-31T17:24:03.114Z,101728.70
2018-07-31T17:26:33.437Z,101724.53
2018-07-31T17:29:01.786Z,101723.69
2018-07-31T17:31:30.124Z,101723.91
2018-07-31T17:33:57.982Z,101722.90
2018-07-31T17:36:26.946Z,101726.11
2018-07-31T17:38:55.291Z,101733.05
2018-07-31T17:41:23.036Z,101732.18
2018-07-31T17:43:51.972Z,101739.50
2018-07-31T17:46:21.189Z,101737.52
2018-07-31T17:48:50.454Z,101736.58
2018-07-31T17:51:18.814Z,101740.05
2018-07-31T17:53:46.574Z,101743.88
2018-07-31T17:56:15.520Z,101749.05
2018-07-31T17:58:43.470Z,101746.93
2018-07-31T18:01:13.185Z,101749.48
2018-07-31T18:03:41.597Z,101748.31
2018-07-31T18:06:11.204Z,101753.08
2018-07-31T18:08:38.291Z,101750.05
2018-07-31T18:11:06.020Z,101750.50
2018-07-31T18:13:34.950Z,101752.11
2018-07-31T18:16:03.561Z,101753.11
2018-07-31T18:18:31.890Z,101759.31
2018-07-31T18:21:00.229Z,101757.92
2018-07-31T18:23:28.635Z,101752.61
2018-07-31T18:26:13.893Z,101756.77
2018-07-31T18:28:42.252Z,101752.62
2018-07-31T18:31:10.015Z,101753.36
2018-07-31T18:33:44.609Z,101752.09
2018-07-31T18:36:12.955Z,101749.06
2018-07-31T18:38:41.333Z,101757.97
2018-07-31T18:41:09.795Z,101760.36
2018-07-31T18:43:37.431Z,101760.93
2018-07-31T18:46:05.748Z,101764.88
2018-07-31T18:48:34.669Z,101764.09
2018-07-31T18:51:02.999Z,101765.72
2018-07-31T18:53:42.999Z,101770.17
2018-07-31T18:56:08.715Z,101770.70
2018-07-31T18:58:37.612Z,101773.69
2018-07-31T19:01:05.545Z,101773.44
2018-07-31T19:03:34.417Z,101774.78
2018-07-31T19:06:02.202Z,101778.70
2018-07-31T19:08:31.180Z,101779.09
2018-07-31T19:10:59.532Z,101779.53
2018-07-31T19:13:27.865Z,101780.03
2018-07-31T19:15:56.214Z,101781.80
2018-07-31T19:18:24.537Z,101780.55
2018-07-31T19:20:52.877Z,101780.43
2018-07-31T19:23:20.633Z,101779.03
2018-07-31T19:25:49.576Z,101782.72
2018-07-31T19:28:17.970Z,101779.98
2018-07-31T19:30:45.677Z,101780.30
2018-07-31T19:33:14.662Z,101777.10
2018-07-31T19:35:42.948Z,101778.56
2018-07-31T19:38:14.366Z,101779.73
2018-07-31T19:40:39.935Z,101772.38
2018-07-31T19:43:11.424Z,101773.42
2018-07-31T19:45:42.304Z,101771.72
2018-07-31T19:48:10.894Z,101771.48
2018-07-31T19:50:51.291Z,101773.42
2018-07-31T19:53:19.625Z,101772.08
2018-07-31T19:55:47.981Z,101778.20
2018-07-31T19:58:15.761Z,101783.38
2018-07-31T20:00:44.669Z,101781.03
2018-07-31T20:03:13.012Z,101776.56
2018-07-31T20:05:43.091Z,101774.91
2018-07-31T20:08:11.596Z,101772.50
2018-07-31T20:10:39.901Z,101778.67
2018-07-31T20:13:09.622Z,101778.70
2018-07-31T20:15:36.861Z,101780.64
2018-07-31T20:18:05.109Z,101780.81
2018-07-31T20:20:32.865Z,101777.30
2018-07-31T20:23:01.821Z,101780.56
2018-07-31T20:25:37.616Z,101782.05
2018-07-31T20:28:08.545Z,101787.36
2018-07-31T20:30:36.932Z,101787.05
2018-07-31T20:33:08.270Z,101786.30
2018-07-31T20:35:38.393Z,101789.82
2018-07-31T20:38:06.717Z,101788.73
2018-07-31T20:40:34.686Z,101788.16
2018-07-31T20:43:02.821Z,101792.13
2018-07-31T20:45:31.190Z,101791.89
2018-07-31T20:47:59.521Z,101789.34
2018-07-31T20:50:34.679Z,101791.48
2018-07-31T20:53:01.230Z,101793.52
2018-07-31T20:55:30.152Z,101797.59
2018-07-31T20:57:58.588Z,101800.53
2018-07-31T21:00:26.941Z,101798.24
2018-07-31T21:02:54.825Z,101798.81
2018-07-31T21:05:27.441Z,101792.42
2018-07-31T21:07:56.427Z,101795.28
2018-07-31T21:10:24.751Z,101793.48
2018-07-31T21:13:04.691Z,101794.38
2018-07-31T21:15:38.734Z,101793.72
2018-07-31T21:20:40.756Z,101800.53
2018-07-31T21:23:09.167Z,101793.23
2018-07-31T21:25:37.911Z,101792.66
2018-07-31T21:28:06.252Z,101794.67
2018-07-31T21:30:34.642Z,101792.02
2018-07-31T21:33:02.995Z,101789.42
2018-07-31T21:35:31.336Z,101785.41
2018-07-31T21:46:50.311Z,101781.23
2018-07-31T21:49:18.674Z,101781.19
2018-07-31T21:51:46.445Z,101776.64
2018-07-31T21:54:15.380Z,101778.67
2018-07-31T21:56:43.149Z,101775.48
2018-07-31T21:59:12.101Z,101774.84
2018-07-31T22:01:51.246Z,101767.70
2018-07-31T22:04:20.230Z,101776.39
2018-07-31T22:06:50.647Z,101779.09
2018-07-31T22:09:19.051Z,101776.41
2018-07-31T22:11:47.428Z,101778.73
2018-07-31T22:14:15.847Z,101775.00
2018-07-31T22:16:44.221Z,101773.67
2018-07-31T22:19:12.590Z,101780.84
2018-07-31T22:21:40.972Z,101778.28
2018-07-31T22:24:09.365Z,101783.48
2018-07-31T22:26:37.744Z,101779.47
2018-07-31T22:29:06.115Z,101781.94
2018-07-31T22:31:34.494Z,101776.91
2018-07-31T22:34:02.886Z,101777.19
2018-07-31T22:36:31.272Z,101777.25
2018-07-31T22:39:11.696Z,101774.00
2018-07-31T22:41:34.905Z,101770.28
2018-07-31T22:44:03.386Z,101770.50
2018-07-31T22:46:31.750Z,101773.33
2018-07-31T22:49:00.483Z,101774.98
2018-07-31T22:51:28.854Z,101771.49
2018-07-31T22:53:57.230Z,101769.72
2018-07-31T22:56:31.805Z,101768.16
2018-07-31T22:59:01.527Z,101764.70
2018-07-31T23:04:24.752Z,101763.84
2018-07-31T23:06:53.124Z,101760.07
2018-07-31T23:09:21.525Z,101758.60
2018-07-31T23:11:49.903Z,101753.78
2018-07-31T23:14:18.291Z,101759.37
2018-07-31T23:16:46.671Z,101755.48
2018-07-31T23:19:15.074Z,101752.59
2018-07-31T23:21:44.372Z,101760.19
2018-07-31T23:24:12.754Z,101759.80
2018-07-31T23:26:41.157Z,101757.61
2018-07-31T23:29:09.568Z,101760.52
2018-07-31T23:31:37.973Z,101756.45
2018-07-31T23:34:06.393Z,101755.36
2018-07-31T23:36:34.793Z,101757.31
2018-07-31T23:39:03.224Z,101756.98
2018-07-31T23:41:31.653Z,101755.68
2018-07-31T23:44:00.034Z,101759.70
2018-07-31T23:46:28.411Z,101755.98
2018-07-31T23:48:56.784Z,101760.16
2018-07-31T23:51:25.182Z,101759.24
2018-07-31T23:53:53.560Z,101755.73
2018-07-31T23:56:21.971Z,101759.17
2018-07-31T23:58:50.384Z,101757.97
